createdAt,value
2018-12-20T00:05:49.128Z,84.13
2018-12-20T00:08:18.835Z,89.13
2018-12-20T00:10:48.444Z,91.50
2018-12-20T00:13:20.397Z,88.43
2018-12-20T00:15:49.916Z,94.27
2018-12-20T00:18:22.258Z,86.17
2018-12-20T00:21:05.896Z,88.70
2018-12-20T00:23:41.882Z,85.47
2018-12-20T00:39:37.060Z,92.77
2018-12-20T00:42:11.569Z,94.27
2018-12-20T00:44:51.224Z,87.83
2018-12-20T00:47:29.875Z,90.20
2018-12-20T00:50:16.101Z,90.40
2018-12-20T00:52:52.746Z,84.60
2018-12-20T00:55:31.864Z,92.87
2018-12-20T00:58:19.185Z,91.77
2018-12-20T01:14:33.936Z,82.57
2018-12-20T01:17:03.574Z,88.43
2018-12-20T01:19:33.480Z,86.27
2018-12-20T01:22:02.823Z,85.10
2018-12-20T01:24:32.154Z,91.07
2018-12-20T01:27:01.420Z,89.73
2018-12-20T01:29:30.687Z,101.67
2018-12-20T01:31:59.794Z,85.10
2018-12-20T01:34:28.931Z,100.43
2018-12-20T01:36:58.077Z,91.73
2018-12-20T01:39:27.256Z,96.53
2018-12-20T01:41:56.707Z,103.30
2018-12-20T01:44:26.590Z,100.77
2018-12-20T01:46:56.591Z,87.27
2018-12-20T01:49:26.174Z,93.23
2018-12-20T01:51:55.615Z,89.20
2018-12-20T01:54:25.074Z,89.23
2018-12-20T01:56:54.369Z,91.03
2018-12-20T01:59:23.535Z,91.97
2018-12-20T02:01:54.168Z,97.87
2018-12-20T02:04:25.060Z,94.43
2018-12-20T02:06:56.056Z,92.63
2018-12-20T02:09:26.319Z,95.10
2018-12-20T02:11:56.905Z,94.03
2018-12-20T02:14:28.242Z,89.47
2018-12-20T02:16:58.241Z,101.13
2018-12-20T02:19:29.140Z,91.37
2018-12-20T02:21:59.483Z,92.70
2018-12-20T02:24:29.395Z,86.17
2018-12-20T02:26:59.690Z,98.23
2018-12-20T02:29:30.438Z,93.27
2018-12-20T02:32:01.491Z,101.97
2018-12-20T02:34:31.400Z,94.60
2018-12-20T02:37:01.692Z,96.10
2018-12-20T02:39:31.749Z,92.57
2018-12-20T02:42:01.122Z,94.87
2018-12-20T02:44:30.712Z,94.90
2018-12-20T02:47:00.177Z,88.90
2018-12-20T02:49:30.170Z,92.43
2018-12-20T02:52:00.082Z,96.30
2018-12-20T02:54:29.945Z,92.60
2018-12-20T02:57:00.618Z,84.57
2018-12-20T02:59:31.847Z,90.00
2018-12-20T03:02:01.045Z,86.77
2018-12-20T03:04:30.541Z,88.03
2018-12-20T03:07:00.116Z,88.43
2018-12-20T03:09:29.426Z,84.13
2018-12-20T03:11:58.640Z,92.20
2018-12-20T03:14:28.937Z,88.57
2018-12-20T03:16:59.347Z,94.43
2018-12-20T03:19:28.981Z,92.13
2018-12-20T03:21:58.865Z,93.70
2018-12-20T03:24:28.564Z,90.80
2018-12-20T03:26:58.698Z,84.27
2018-12-20T03:29:28.219Z,82.87
2018-12-20T03:31:57.691Z,90.20
2018-12-20T03:34:28.257Z,89.63
2018-12-20T03:36:58.125Z,80.17
2018-12-20T03:39:28.243Z,82.93
2018-12-20T03:41:57.795Z,83.70
2018-12-20T03:44:27.961Z,86.03
2018-12-20T03:46:57.567Z,90.60
2018-12-20T03:49:28.447Z,81.47
2018-12-20T03:51:58.609Z,86.57
2018-12-20T03:54:28.250Z,90.37
2018-12-20T03:56:58.669Z,95.13
2018-12-20T03:59:28.195Z,88.40
2018-12-20T04:01:57.365Z,84.50
2018-12-20T04:04:28.923Z,94.40
2018-12-20T04:07:00.630Z,83.50
2018-12-20T04:09:29.995Z,84.57
2018-12-20T04:12:03.147Z,78.17
2018-12-20T04:14:32.944Z,90.33
2018-12-20T04:17:03.442Z,85.97
2018-12-20T04:19:33.092Z,88.30
2018-12-20T04:22:02.491Z,85.70
2018-12-20T04:24:32.291Z,86.10
2018-12-20T04:27:02.103Z,84.67
2018-12-20T04:29:31.425Z,84.07
2018-12-20T04:32:01.078Z,85.53
2018-12-20T04:34:30.882Z,91.57
2018-12-20T04:37:00.361Z,84.30
2018-12-20T04:39:29.872Z,89.43
2018-12-20T04:41:59.839Z,81.63
2018-12-20T04:44:29.217Z,85.00
2018-12-20T04:46:59.675Z,81.07
2018-12-20T04:49:30.286Z,83.90
2018-12-20T04:51:59.849Z,80.17
2018-12-20T04:54:29.973Z,87.17
2018-12-20T04:56:59.438Z,84.57
2018-12-20T04:59:29.167Z,79.00
2018-12-20T05:01:58.683Z,87.23
2018-12-20T05:04:29.189Z,80.57
2018-12-20T05:06:58.546Z,88.73
2018-12-20T05:09:28.248Z,85.03
2018-12-20T05:11:57.947Z,85.47
2018-12-20T05:14:27.730Z,78.50
2018-12-20T05:16:57.181Z,76.60
2018-12-20T05:19:26.578Z,71.43
2018-12-20T05:21:56.534Z,88.60
2018-12-20T05:24:26.676Z,83.37
2018-12-20T05:26:58.579Z,72.57
2018-12-20T05:30:01.281Z,76.17
2018-12-20T05:32:41.614Z,76.70
2018-12-20T05:35:12.141Z,74.37
2018-12-20T05:37:44.604Z,77.37
2018-12-20T05:40:14.208Z,74.33
2018-12-20T05:42:45.052Z,82.53
2018-12-20T05:45:17.203Z,87.50
2018-12-20T05:47:48.059Z,83.60
2018-12-20T05:50:18.461Z,84.03
2018-12-20T05:52:47.970Z,76.87
2018-12-20T05:55:17.201Z,81.37
2018-12-20T05:57:46.566Z,77.37
2018-12-20T06:00:15.946Z,83.07
2018-12-20T06:02:45.539Z,86.40
2018-12-20T06:05:15.765Z,70.70
2018-12-20T06:07:45.126Z,73.47
2018-12-20T06:10:14.261Z,76.60
2018-12-20T06:12:43.783Z,68.30
2018-12-20T06:15:13.627Z,77.33
2018-12-20T06:17:45.044Z,84.70
2018-12-20T06:20:15.470Z,67.53
2018-12-20T06:22:44.995Z,72.67
2018-12-20T06:25:14.568Z,64.10
2018-12-20T06:27:44.791Z,75.53
2018-12-20T06:30:14.483Z,80.53
2018-12-20T06:32:43.671Z,84.27
2018-12-20T06:35:13.143Z,72.77
2018-12-20T06:37:42.334Z,73.13
2018-12-20T06:40:11.430Z,64.47
2018-12-20T06:42:40.547Z,70.47
2018-12-20T06:45:09.636Z,74.10
2018-12-20T06:47:39.100Z,68.90
2018-12-20T06:50:08.248Z,62.10
2018-12-20T06:52:37.703Z,81.50
2018-12-20T06:55:07.239Z,69.30
2018-12-20T06:57:36.991Z,60.77
2018-12-20T07:00:07.982Z,72.63
2018-12-20T07:02:39.260Z,68.87
2018-12-20T07:05:08.895Z,73.43
2018-12-20T07:07:38.054Z,63.40
2018-12-20T07:10:08.543Z,57.87
2018-12-20T07:12:38.111Z,75.47
2018-12-20T07:15:08.819Z,68.07
2018-12-20T07:17:38.698Z,70.23
2018-12-20T07:20:07.816Z,57.80
2018-12-20T07:22:36.918Z,60.07
2018-12-20T07:25:06.033Z,69.60
2018-12-20T07:27:36.331Z,64.23
2018-12-20T07:30:07.096Z,90.10
2018-12-20T07:32:36.222Z,97.23
2018-12-20T07:35:05.647Z,86.63
2018-12-20T07:37:34.742Z,56.13
2018-12-20T07:40:05.670Z,58.90
2018-12-20T07:42:35.120Z,49.03
2018-12-20T07:45:05.074Z,49.23
2018-12-20T07:47:34.526Z,49.63
2018-12-20T07:50:04.643Z,52.23
2018-12-20T07:52:34.135Z,56.07
2018-12-20T07:55:04.220Z,65.07
2018-12-20T07:57:33.455Z,55.37
2018-12-20T08:00:03.034Z,67.63
2018-12-20T08:02:32.203Z,59.60
2018-12-20T08:05:01.570Z,55.53
2018-12-20T08:07:30.684Z,48.83
2018-12-20T08:09:59.767Z,48.40
2018-12-20T08:12:29.210Z,48.83
2018-12-20T08:14:58.833Z,48.93
2018-12-20T08:17:28.407Z,47.17
2018-12-20T08:19:57.979Z,43.60
2018-12-20T08:22:27.190Z,49.77
2018-12-20T08:25:10.867Z,45.87
2018-12-20T08:27:40.322Z,49.10
2018-12-20T08:30:09.955Z,50.57
2018-12-20T08:32:39.470Z,49.13
2018-12-20T08:35:08.666Z,43.97
2018-12-20T08:37:39.259Z,45.97
2018-12-20T08:40:09.082Z,46.13
2018-12-20T08:42:38.210Z,42.00
2018-12-20T08:45:07.318Z,40.27
2018-12-20T08:47:36.407Z,43.60
2018-12-20T08:50:07.139Z,41.27
2018-12-20T08:52:36.683Z,42.57
2018-12-20T08:55:05.915Z,46.73
2018-12-20T08:57:35.042Z,133.50
2018-12-20T09:00:05.731Z,156.97
2018-12-20T09:02:34.903Z,199.80
2018-12-20T09:05:04.491Z,190.97
2018-12-20T09:07:33.987Z,166.60
2018-12-20T09:10:04.505Z,126.50
2018-12-20T09:12:34.963Z,141.40
2018-12-20T09:15:04.650Z,111.70
2018-12-20T09:17:33.728Z,107.83
2018-12-20T09:20:02.843Z,111.07
2018-12-20T09:22:31.939Z,78.57
2018-12-20T09:25:02.091Z,70.13
2018-12-20T09:27:31.266Z,75.13
2018-12-20T09:30:00.716Z,76.30
2018-12-20T09:32:30.261Z,76.67
2018-12-20T09:34:59.823Z,66.77
2018-12-20T09:37:29.632Z,74.50
2018-12-20T09:39:59.246Z,105.97
2018-12-20T09:42:28.767Z,55.80
2018-12-20T09:44:57.898Z,53.83
2018-12-20T09:47:33.104Z,71.77
2018-12-20T09:50:02.671Z,72.03
2018-12-20T09:52:32.866Z,82.37
2018-12-20T09:55:02.400Z,68.40
2018-12-20T09:57:33.321Z,54.13
2018-12-20T10:00:03.218Z,51.83
2018-12-20T10:02:32.756Z,49.37
2018-12-20T10:05:02.553Z,48.10
2018-12-20T10:07:32.047Z,51.13
2018-12-20T10:10:02.927Z,48.37
2018-12-20T10:12:32.883Z,45.73
2018-12-20T10:15:02.075Z,35.53
2018-12-20T10:17:31.947Z,39.87
2018-12-20T10:20:01.489Z,37.13
2018-12-20T10:22:37.081Z,50.27
2018-12-20T10:25:07.119Z,42.00
2018-12-20T10:27:37.659Z,42.43
2018-12-20T10:30:07.951Z,48.33
2018-12-20T10:32:37.465Z,43.83
2018-12-20T10:35:07.533Z,40.63
2018-12-20T10:37:37.399Z,43.07
2018-12-20T10:40:10.320Z,44.73
2018-12-20T10:42:39.399Z,47.83
2018-12-20T10:45:09.439Z,47.13
2018-12-20T10:47:38.539Z,47.00
2018-12-20T10:50:08.458Z,49.73
2018-12-20T10:52:37.972Z,49.97
2018-12-20T10:55:07.162Z,47.37
2018-12-20T10:57:36.247Z,53.47
2018-12-20T11:00:05.820Z,50.37
2018-12-20T11:03:39.900Z,54.87
2018-12-20T11:06:14.619Z,63.07
2018-12-20T11:08:49.194Z,53.00
2018-12-20T11:11:21.402Z,55.03
2018-12-20T11:13:50.942Z,49.60
2018-12-20T11:16:20.023Z,56.57
2018-12-20T11:18:49.147Z,47.87
2018-12-20T11:21:18.233Z,46.03
2018-12-20T11:23:47.922Z,48.43
2018-12-20T11:26:17.851Z,48.80
2018-12-20T11:28:47.433Z,51.03
2018-12-20T11:31:17.599Z,54.47
2018-12-20T11:33:47.972Z,42.17
2018-12-20T11:36:17.503Z,48.27
2018-12-20T11:38:47.671Z,45.87
2018-12-20T11:41:16.868Z,69.30
2018-12-20T11:43:46.411Z,42.83
2018-12-20T11:46:15.947Z,45.13
2018-12-20T11:48:45.499Z,43.93
2018-12-20T11:51:14.722Z,53.03
2018-12-20T11:53:43.798Z,53.57
2018-12-20T11:56:12.878Z,47.97
2018-12-20T11:58:42.013Z,47.10
2018-12-20T12:01:11.468Z,42.57
2018-12-20T12:03:40.665Z,49.43
2018-12-20T12:06:09.757Z,48.20
2018-12-20T12:08:38.842Z,48.37
2018-12-20T12:11:07.942Z,40.87
2018-12-20T12:13:37.093Z,45.97
2018-12-20T12:16:06.638Z,49.80
2018-12-20T12:18:36.194Z,50.00
2018-12-20T12:21:05.675Z,46.00
2018-12-20T12:23:35.255Z,43.03
2018-12-20T12:26:04.396Z,45.07
2018-12-20T12:28:33.492Z,43.57
2018-12-20T12:31:02.575Z,47.27
2018-12-20T12:33:32.067Z,46.40
2018-12-20T12:36:01.259Z,44.13
2018-12-20T12:38:31.166Z,88.27
2018-12-20T12:41:00.315Z,39.33
2018-12-20T12:43:29.406Z,38.00
2018-12-20T12:45:58.872Z,38.50
2018-12-20T12:48:28.049Z,41.17
2018-12-20T12:50:57.131Z,37.17
2018-12-20T12:53:26.255Z,45.40
2018-12-20T12:55:55.691Z,36.67
2018-12-20T12:58:24.774Z,39.97
2018-12-20T13:00:54.263Z,36.40
2018-12-20T13:03:23.426Z,34.63
2018-12-20T13:05:52.883Z,41.43
2018-12-20T13:08:22.157Z,42.67
2018-12-20T13:10:51.795Z,41.00
2018-12-20T13:13:21.070Z,41.93
2018-12-20T13:15:50.603Z,41.33
2018-12-20T13:18:19.795Z,39.37
2018-12-20T13:20:48.951Z,42.60
2018-12-20T13:23:18.691Z,40.17
2018-12-20T13:25:48.232Z,45.13
2018-12-20T13:28:17.419Z,45.23
2018-12-20T13:30:46.897Z,48.03
2018-12-20T13:33:16.055Z,58.60
2018-12-20T13:35:45.528Z,58.33
2018-12-20T13:38:15.116Z,51.87
2018-12-20T13:40:44.663Z,49.73
2018-12-20T13:43:13.843Z,52.33
2018-12-20T13:45:43.343Z,56.50
2018-12-20T13:48:22.016Z,56.77
2018-12-20T13:50:44.736Z,56.50
2018-12-20T13:53:14.188Z,64.53
2018-12-20T13:55:44.406Z,54.67
2018-12-20T13:58:13.864Z,50.87
2018-12-20T14:00:43.459Z,62.37
2018-12-20T14:03:13.035Z,64.63
2018-12-20T14:05:42.215Z,67.17
2018-12-20T14:08:11.299Z,60.00
2018-12-20T14:10:40.799Z,49.87
2018-12-20T14:13:09.971Z,48.67
2018-12-20T14:15:39.050Z,47.67
2018-12-20T14:18:08.158Z,55.67
2018-12-20T14:20:37.635Z,45.90
2018-12-20T14:23:07.802Z,47.63
2018-12-20T14:25:36.898Z,50.40
2018-12-20T14:28:06.522Z,54.20
2018-12-20T14:30:37.158Z,45.17
2018-12-20T14:33:06.731Z,51.90
2018-12-20T14:35:35.949Z,55.00
2018-12-20T14:38:05.448Z,56.87
2018-12-20T14:40:34.617Z,80.63
2018-12-20T14:43:04.074Z,74.43
2018-12-20T14:45:33.298Z,54.57
2018-12-20T14:48:02.406Z,59.47
2018-12-20T14:50:31.879Z,61.00
2018-12-20T14:53:01.119Z,56.90
2018-12-20T14:55:30.194Z,56.87
2018-12-20T14:57:59.308Z,65.10
2018-12-20T15:00:28.823Z,64.73
2018-12-20T15:02:58.628Z,57.67
2018-12-20T15:05:27.735Z,54.07
2018-12-20T15:07:57.251Z,56.53
2018-12-20T15:10:26.426Z,57.90
2018-12-20T15:12:55.895Z,55.20
2018-12-20T15:15:25.110Z,63.87
2018-12-20T15:17:54.194Z,62.90
2018-12-20T15:20:23.978Z,70.37
2018-12-20T15:22:53.540Z,80.37
2018-12-20T15:25:22.699Z,106.53
2018-12-20T15:27:52.148Z,116.17
2018-12-20T15:30:21.692Z,108.10
2018-12-20T15:32:51.271Z,99.80
2018-12-20T15:35:20.414Z,75.03
2018-12-20T15:37:49.884Z,103.07
2018-12-20T15:40:19.439Z,85.30
2018-12-20T15:42:49.015Z,69.97
2018-12-20T15:45:18.871Z,64.97
2018-12-20T15:47:48.424Z,70.10
2018-12-20T15:50:17.951Z,86.20
2018-12-20T15:52:47.120Z,70.47
2018-12-20T15:55:16.180Z,71.50
2018-12-20T15:57:45.621Z,63.20
2018-12-20T16:00:15.127Z,66.87
2018-12-20T16:02:44.643Z,86.50
2018-12-20T16:05:14.206Z,112.77
2018-12-20T16:07:43.739Z,160.60
2018-12-20T16:10:13.267Z,212.00
2018-12-20T16:12:43.147Z,218.17
2018-12-20T16:15:12.691Z,174.57
2018-12-20T16:17:42.199Z,121.70
2018-12-20T16:20:11.730Z,103.80
2018-12-20T16:22:41.283Z,86.30
2018-12-20T16:25:10.799Z,102.33
2018-12-20T16:27:40.412Z,83.77
2018-12-20T16:30:11.564Z,84.33
2018-12-20T16:32:41.478Z,99.67
2018-12-20T16:35:11.024Z,103.20
2018-12-20T16:37:40.603Z,101.53
2018-12-20T16:40:10.193Z,87.37
2018-12-20T16:42:39.678Z,104.50
2018-12-20T16:45:09.220Z,122.47
2018-12-20T16:47:38.727Z,139.63
2018-12-20T16:50:10.048Z,124.87
2018-12-20T16:52:39.558Z,122.83
2018-12-20T16:55:09.996Z,108.87
2018-12-20T16:57:39.515Z,118.37
2018-12-20T17:00:11.826Z,158.97
2018-12-20T17:02:41.374Z,134.50
2018-12-20T17:05:10.923Z,125.27
2018-12-20T17:07:40.439Z,113.57
2018-12-20T17:10:09.974Z,125.47
2018-12-20T17:12:39.495Z,126.30
2018-12-20T17:15:09.059Z,119.00
2018-12-20T17:17:38.214Z,118.50
2018-12-20T17:20:08.733Z,106.03
2018-12-20T17:22:38.278Z,108.63
2018-12-20T17:25:07.874Z,107.90
2018-12-20T17:27:37.378Z,121.17
2018-12-20T17:30:08.994Z,131.27
2018-12-20T17:32:38.506Z,120.40
2018-12-20T17:35:08.022Z,107.57
2018-12-20T17:37:37.575Z,130.30
2018-12-20T17:40:07.987Z,121.20
2018-12-20T17:42:37.567Z,122.43
2018-12-20T17:45:08.379Z,123.23
2018-12-20T17:47:38.315Z,112.90
2018-12-20T17:50:09.754Z,128.70
2018-12-20T17:52:39.302Z,148.27
2018-12-20T17:55:08.841Z,138.83
2018-12-20T17:57:38.391Z,115.17
2018-12-20T18:00:11.243Z,113.80
2018-12-20T18:02:40.782Z,136.77
2018-12-20T18:05:10.318Z,106.00
2018-12-20T18:07:39.842Z,159.27
2018-12-20T18:10:11.395Z,101.97
2018-12-20T18:12:40.935Z,106.40
2018-12-20T18:15:12.266Z,101.63
2018-12-20T18:17:41.830Z,112.33
2018-12-20T18:20:11.520Z,96.37
2018-12-20T18:22:41.014Z,100.17
2018-12-20T18:25:10.602Z,112.17
2018-12-20T18:27:40.579Z,107.07
2018-12-20T18:30:12.006Z,104.17
2018-12-20T18:32:41.512Z,97.10
2018-12-20T18:35:11.040Z,106.20
2018-12-20T18:37:40.587Z,107.33
2018-12-20T18:40:10.438Z,111.00
2018-12-20T18:42:39.982Z,121.70
2018-12-20T18:45:09.790Z,111.43
2018-12-20T18:47:39.338Z,123.90
2018-12-20T18:50:10.362Z,117.07
2018-12-20T18:52:40.343Z,122.07
2018-12-20T18:55:09.866Z,126.60
2018-12-20T18:57:39.418Z,121.23
2018-12-20T19:00:10.195Z,118.53
2018-12-20T19:02:39.882Z,129.93
2018-12-20T19:05:09.447Z,111.07
2018-12-20T19:07:38.963Z,118.73
2018-12-20T19:10:09.028Z,150.40
2018-12-20T19:12:38.591Z,128.17
2018-12-20T19:15:09.728Z,137.83
2018-12-20T19:17:39.282Z,126.13
2018-12-20T19:20:16.007Z,132.17
2018-12-20T19:22:41.819Z,119.87
2018-12-20T19:25:11.395Z,116.37
2018-12-20T19:27:41.872Z,126.67
2018-12-20T19:30:11.811Z,134.43
2018-12-20T19:32:41.683Z,124.20
2018-12-20T19:35:12.595Z,159.57
2018-12-20T19:37:42.030Z,180.90
2018-12-20T19:40:11.874Z,135.30
2018-12-20T19:42:42.715Z,148.80
2018-12-20T19:45:13.826Z,155.07
2018-12-20T19:47:43.414Z,141.77
2018-12-20T19:50:13.983Z,152.43
2018-12-20T19:52:45.258Z,141.47
2018-12-20T19:55:16.031Z,135.57
2018-12-20T19:57:46.213Z,120.23
2018-12-20T20:00:17.854Z,117.17
2018-12-20T20:02:47.068Z,145.03
2018-12-20T20:05:16.967Z,179.33
2018-12-20T20:07:47.478Z,156.50
2018-12-20T20:10:17.787Z,143.90
2018-12-20T20:12:48.496Z,131.60
2018-12-20T20:15:18.835Z,124.27
2018-12-20T20:17:48.503Z,126.23
2018-12-20T20:20:18.049Z,121.93
2018-12-20T20:22:47.614Z,126.53
2018-12-20T20:25:17.335Z,127.03
2018-12-20T20:27:50.250Z,139.03
2018-12-20T20:30:20.850Z,121.50
2018-12-20T20:32:51.641Z,131.23
2018-12-20T20:35:21.150Z,121.93
2018-12-20T20:37:51.839Z,116.63
2018-12-20T20:40:20.986Z,118.20
2018-12-20T20:42:51.378Z,123.17
2018-12-20T20:45:21.758Z,125.33
2018-12-20T20:47:51.833Z,135.43
2018-12-20T20:50:22.770Z,113.83
2018-12-20T20:52:52.764Z,132.33
2018-12-20T20:55:22.299Z,129.67
2018-12-20T20:57:51.792Z,131.87
2018-12-20T21:00:22.198Z,147.57
2018-12-20T21:02:55.067Z,124.30
2018-12-20T21:05:25.574Z,134.17
2018-12-20T21:07:57.246Z,121.50
2018-12-20T21:10:27.083Z,145.23
2018-12-20T21:12:57.706Z,132.93
2018-12-20T21:15:27.602Z,133.83
2018-12-20T21:17:58.898Z,124.73
2018-12-20T21:20:30.736Z,127.13
2018-12-20T21:23:00.275Z,107.93
2018-12-20T21:25:30.635Z,120.73
2018-12-20T21:28:00.438Z,130.03
2018-12-20T21:30:31.031Z,123.33
2018-12-20T21:33:00.834Z,127.77
2018-12-20T21:35:31.242Z,109.20
2018-12-20T21:38:01.511Z,105.40
2018-12-20T21:40:31.201Z,104.27
2018-12-20T21:43:01.364Z,109.33
2018-12-20T21:45:31.643Z,101.90
2018-12-20T21:48:01.283Z,103.27
2018-12-20T21:50:38.805Z,99.90
2018-12-20T21:53:02.330Z,118.63
2018-12-20T21:55:32.542Z,122.83
2018-12-20T21:58:02.199Z,128.00
2018-12-20T22:00:31.330Z,128.47
2018-12-20T22:03:02.002Z,116.50
2018-12-20T22:05:33.490Z,92.30
2018-12-20T22:08:03.040Z,105.57
2018-12-20T22:10:32.547Z,104.87
2018-12-20T22:13:02.074Z,133.27
2018-12-20T22:15:31.265Z,109.47
2018-12-20T22:18:01.366Z,104.90
2018-12-20T22:20:30.942Z,97.27
2018-12-20T22:23:00.462Z,106.93
2018-12-20T22:25:36.067Z,90.87
2018-12-20T22:28:05.583Z,97.33
2018-12-20T22:30:35.087Z,111.33
2018-12-20T22:33:04.687Z,89.87
2018-12-20T22:35:34.228Z,97.77
2018-12-20T22:38:04.263Z,101.63
2018-12-20T22:40:33.847Z,90.27
2018-12-20T22:43:02.994Z,86.20
2018-12-20T22:45:32.085Z,86.10
2018-12-20T22:48:01.192Z,92.87
2018-12-20T22:50:31.055Z,82.67
2018-12-20T22:53:00.558Z,87.93
2018-12-20T22:55:30.087Z,85.17
2018-12-20T22:57:59.575Z,95.40
2018-12-20T23:00:29.099Z,88.37
2018-12-20T23:02:58.590Z,87.90
2018-12-20T23:05:28.102Z,76.90
2018-12-20T23:07:57.620Z,78.33
2018-12-20T23:10:27.203Z,75.23
2018-12-20T23:12:56.886Z,74.47
2018-12-20T23:15:26.427Z,80.33
2018-12-20T23:17:56.015Z,76.50
2018-12-20T23:20:25.509Z,76.43
2018-12-20T23:22:55.060Z,76.00
2018-12-20T23:25:24.565Z,83.60
2018-12-20T23:27:54.051Z,106.87
2018-12-20T23:30:23.576Z,88.00
2018-12-20T23:32:53.063Z,82.47
2018-12-20T23:35:22.619Z,92.83
2018-12-20T23:37:52.119Z,96.67
2018-12-20T23:40:21.630Z,82.90
2018-12-20T23:42:51.154Z,84.53
2018-12-20T23:45:20.642Z,77.30
2018-12-20T23:47:50.131Z,77.70
2018-12-20T23:50:19.678Z,77.47
2018-12-20T23:52:49.175Z,80.37
2018-12-20T23:55:18.678Z,81.10
2018-12-20T23:57:48.174Z,69.50
